sensor_id;sensor_type;location;lat;lon;timestamp;P1;durP1;ratioP1;P2;durP2;ratioP2
58242;SDS011;50118;53.232;8.252;2022-11-20T00:01:09;27.38;;;15.63;;
58242;SDS011;50118;53.232;8.252;2022-11-20T00:03:39;24.60;;;15.77;;
58242;SDS011;50118;53.232;8.252;2022-11-20T00:06:12;23.85;;;16.20;;
58242;SDS011;50118;53.232;8.252;2022-11-20T00:08:39;24.55;;;15.88;;
58242;SDS011;50118;53.232;8.252;2022-11-20T00:11:09;25.23;;;15.82;;
58242;SDS011;50118;53.232;8.252;2022-11-20T00:13:36;25.85;;;17.25;;
58242;SDS011;50118;53.232;8.252;2022-11-20T00:16:02;24.80;;;16.98;;
58242;SDS011;50118;53.232;8.252;2022-11-20T00:18:29;24.30;;;16.75;;
58242;SDS011;50118;53.232;8.252;2022-11-20T00:21:06;24.38;;;16.48;;
58242;SDS011;50118;53.232;8.252;2022-11-20T00:23:35;25.13;;;16.77;;
58242;SDS011;50118;53.232;8.252;2022-11-20T00:26:02;24.10;;;16.67;;
58242;SDS011;50118;53.232;8.252;2022-11-20T00:28:31;23.20;;;15.52;;
58242;SDS011;50118;53.232;8.252;2022-11-20T00:31:03;27.98;;;17.38;;
58242;SDS011;50118;53.232;8.252;2022-11-20T00:33:31;26.52;;;16.63;;
58242;SDS011;50118;53.232;8.252;2022-11-20T00:36:00;26.67;;;16.77;;
58242;SDS011;50118;53.232;8.252;2022-11-20T00:38:27;25.50;;;16.08;;
58242;SDS011;50118;53.232;8.252;2022-11-20T00:40:59;26.65;;;16.80;;
58242;SDS011;50118;53.232;8.252;2022-11-20T00:43:29;24.98;;;16.42;;
58242;SDS011;50118;53.232;8.252;2022-11-20T00:46:01;30.58;;;17.52;;
58242;SDS011;50118;53.232;8.252;2022-11-20T00:48:29;28.08;;;16.77;;
58242;SDS011;50118;53.232;8.252;2022-11-20T00:50:55;25.35;;;16.27;;
58242;SDS011;50118;53.232;8.252;2022-11-20T00:53:21;25.25;;;16.55;;
58242;SDS011;50118;53.232;8.252;2022-11-20T00:55:53;30.45;;;18.65;;
58242;SDS011;50118;53.232;8.252;2022-11-20T00:58:20;25.48;;;17.38;;
58242;SDS011;50118;53.232;8.252;2022-11-20T01:00:46;25.52;;;17.33;;
58242;SDS011;50118;53.232;8.252;2022-11-20T01:03:11;26.50;;;17.25;;
58242;SDS011;50118;53.232;8.252;2022-11-20T01:05:37;25.65;;;16.42;;
58242;SDS011;50118;53.232;8.252;2022-11-20T01:08:02;25.73;;;16.60;;
58242;SDS011;50118;53.232;8.252;2022-11-20T01:10:28;25.00;;;16.20;;
58242;SDS011;50118;53.232;8.252;2022-11-20T01:12:54;24.95;;;16.85;;
58242;SDS011;50118;53.232;8.252;2022-11-20T01:15:39;23.13;;;16.20;;
58242;SDS011;50118;53.232;8.252;2022-11-20T01:18:04;24.33;;;16.40;;
58242;SDS011;50118;53.232;8.252;2022-11-20T01:20:33;25.13;;;16.50;;
58242;SDS011;50118;53.232;8.252;2022-11-20T01:23:00;24.77;;;16.20;;
58242;SDS011;50118;53.232;8.252;2022-11-20T01:25:26;24.85;;;15.82;;
58242;SDS011;50118;53.232;8.252;2022-11-20T01:27:51;23.83;;;15.90;;
58242;SDS011;50118;53.232;8.252;2022-11-20T01:30:17;23.27;;;15.27;;
58242;SDS011;50118;53.232;8.252;2022-11-20T01:32:42;25.15;;;15.40;;
58242;SDS011;50118;53.232;8.252;2022-11-20T01:35:08;24.08;;;15.90;;
58242;SDS011;50118;53.232;8.252;2022-11-20T01:37:34;22.73;;;15.40;;
58242;SDS011;50118;53.232;8.252;2022-11-20T01:40:00;25.73;;;15.88;;
58242;SDS011;50118;53.232;8.252;2022-11-20T01:42:25;23.67;;;15.70;;
58242;SDS011;50118;53.232;8.252;2022-11-20T01:48:12;23.90;;;15.95;;
58242;SDS011;50118;53.232;8.252;2022-11-20T01:50:38;23.88;;;14.95;;
58242;SDS011;50118;53.232;8.252;2022-11-20T01:53:07;22.48;;;14.38;;
58242;SDS011;50118;53.232;8.252;2022-11-20T01:55:39;21.45;;;13.88;;
58242;SDS011;50118;53.232;8.252;2022-11-20T01:58:09;22.48;;;14.70;;
58242;SDS011;50118;53.232;8.252;2022-11-20T02:00:35;20.75;;;13.35;;
58242;SDS011;50118;53.232;8.252;2022-11-20T02:03:02;19.67;;;13.73;;
58242;SDS011;50118;53.232;8.252;2022-11-20T02:05:35;22.30;;;14.15;;
58242;SDS011;50118;53.232;8.252;2022-11-20T02:08:05;20.23;;;13.43;;
58242;SDS011;50118;53.232;8.252;2022-11-20T02:10:32;20.67;;;13.35;;
58242;SDS011;50118;53.232;8.252;2022-11-20T02:12:58;20.80;;;13.15;;
58242;SDS011;50118;53.232;8.252;2022-11-20T02:15:42;18.17;;;12.25;;
58242;SDS011;50118;53.232;8.252;2022-11-20T02:18:07;20.30;;;13.23;;
58242;SDS011;50118;53.232;8.252;2022-11-20T02:20:35;19.70;;;12.23;;
58242;SDS011;50118;53.232;8.252;2022-11-20T02:23:05;19.27;;;11.77;;
58242;SDS011;50118;53.232;8.252;2022-11-20T02:25:37;17.55;;;11.93;;
58242;SDS011;50118;53.232;8.252;2022-11-20T02:28:04;16.98;;;11.68;;
58242;SDS011;50118;53.232;8.252;2022-11-20T02:30:30;19.27;;;12.15;;
58242;SDS011;50118;53.232;8.252;2022-11-20T02:32:57;17.38;;;11.02;;
58242;SDS011;50118;53.232;8.252;2022-11-20T02:37:49;18.58;;;11.70;;
58242;SDS011;50118;53.232;8.252;2022-11-20T02:40:18;17.83;;;11.80;;
58242;SDS011;50118;53.232;8.252;2022-11-20T02:42:44;17.30;;;11.23;;
58242;SDS011;50118;53.232;8.252;2022-11-20T02:45:10;16.85;;;10.75;;
58242;SDS011;50118;53.232;8.252;2022-11-20T02:47:36;16.33;;;10.77;;
58242;SDS011;50118;53.232;8.252;2022-11-20T02:50:02;16.65;;;11.30;;
58242;SDS011;50118;53.232;8.252;2022-11-20T02:52:28;15.15;;;10.13;;
58242;SDS011;50118;53.232;8.252;2022-11-20T02:54:54;16.00;;;10.38;;
58242;SDS011;50118;53.232;8.252;2022-11-20T02:57:19;16.55;;;10.10;;
58242;SDS011;50118;53.232;8.252;2022-11-20T02:59:45;14.32;;;9.55;;
58242;SDS011;50118;53.232;8.252;2022-11-20T03:02:10;16.50;;;10.13;;
58242;SDS011;50118;53.232;8.252;2022-11-20T03:04:35;17.10;;;10.05;;
58242;SDS011;50118;53.232;8.252;2022-11-20T03:07:01;15.27;;;10.60;;
58242;SDS011;50118;53.232;8.252;2022-11-20T03:09:26;15.43;;;10.13;;
58242;SDS011;50118;53.232;8.252;2022-11-20T03:11:52;16.77;;;9.85;;
58242;SDS011;50118;53.232;8.252;2022-11-20T03:14:17;13.70;;;9.60;;
58242;SDS011;50118;53.232;8.252;2022-11-20T03:16:43;15.52;;;8.90;;
58242;SDS011;50118;53.232;8.252;2022-11-20T03:19:08;13.95;;;9.18;;
58242;SDS011;50118;53.232;8.252;2022-11-20T03:21:34;14.25;;;8.90;;
58242;SDS011;50118;53.232;8.252;2022-11-20T03:23:59;15.18;;;9.00;;
58242;SDS011;50118;53.232;8.252;2022-11-20T03:26:26;14.18;;;9.63;;
58242;SDS011;50118;53.232;8.252;2022-11-20T03:28:55;14.90;;;9.15;;
58242;SDS011;50118;53.232;8.252;2022-11-20T03:31:41;14.25;;;9.57;;
58242;SDS011;50118;53.232;8.252;2022-11-20T03:34:07;14.57;;;9.25;;
58242;SDS011;50118;53.232;8.252;2022-11-20T03:36:34;13.30;;;8.93;;
58242;SDS011;50118;53.232;8.252;2022-11-20T03:39:02;13.77;;;9.02;;
58242;SDS011;50118;53.232;8.252;2022-11-20T03:41:28;15.15;;;8.93;;
58242;SDS011;50118;53.232;8.252;2022-11-20T03:43:56;16.05;;;8.75;;
58242;SDS011;50118;53.232;8.252;2022-11-20T03:46:26;13.23;;;8.98;;
58242;SDS011;50118;53.232;8.252;2022-11-20T03:48:52;13.98;;;8.82;;
58242;SDS011;50118;53.232;8.252;2022-11-20T03:53:44;13.30;;;8.73;;
58242;SDS011;50118;53.232;8.252;2022-11-20T03:56:12;14.25;;;8.50;;
58242;SDS011;50118;53.232;8.252;2022-11-20T03:58:39;13.10;;;8.40;;
58242;SDS011;50118;53.232;8.252;2022-11-20T04:01:07;14.82;;;7.97;;
58242;SDS011;50118;53.232;8.252;2022-11-20T04:03:37;14.82;;;8.57;;
58242;SDS011;50118;53.232;8.252;2022-11-20T04:06:09;13.35;;;8.15;;
58242;SDS011;50118;53.232;8.252;2022-11-20T04:08:36;15.65;;;8.68;;
58242;SDS011;50118;53.232;8.252;2022-11-20T04:11:14;14.18;;;8.32;;
58242;SDS011;50118;53.232;8.252;2022-11-20T04:13:40;12.80;;;8.25;;
58242;SDS011;50118;53.232;8.252;2022-11-20T04:16:07;11.95;;;7.75;;
58242;SDS011;50118;53.232;8.252;2022-11-20T04:18:33;11.82;;;7.82;;
58242;SDS011;50118;53.232;8.252;2022-11-20T04:21:00;11.27;;;7.43;;
58242;SDS011;50118;53.232;8.252;2022-11-20T04:23:26;11.27;;;7.63;;
58242;SDS011;50118;53.232;8.252;2022-11-20T04:25:52;10.85;;;7.43;;
58242;SDS011;50118;53.232;8.252;2022-11-20T04:28:18;10.88;;;7.00;;
58242;SDS011;50118;53.232;8.252;2022-11-20T04:30:43;10.00;;;7.05;;
58242;SDS011;50118;53.232;8.252;2022-11-20T04:33:08;10.88;;;7.07;;
58242;SDS011;50118;53.232;8.252;2022-11-20T04:35:34;9.45;;;6.82;;
58242;SDS011;50118;53.232;8.252;2022-11-20T04:38:00;11.73;;;7.05;;
58242;SDS011;50118;53.232;8.252;2022-11-20T04:40:26;11.25;;;6.63;;
58242;SDS011;50118;53.232;8.252;2022-11-20T04:42:52;9.80;;;6.53;;
58242;SDS011;50118;53.232;8.252;2022-11-20T04:45:18;11.43;;;6.63;;
58242;SDS011;50118;53.232;8.252;2022-11-20T04:47:44;10.77;;;6.63;;
58242;SDS011;50118;53.232;8.252;2022-11-20T04:50:09;10.05;;;6.15;;
58242;SDS011;50118;53.232;8.252;2022-11-20T04:52:34;9.45;;;6.35;;
58242;SDS011;50118;53.232;8.252;2022-11-20T04:55:00;10.73;;;7.05;;
58242;SDS011;50118;53.232;8.252;2022-11-20T04:57:26;10.82;;;6.57;;
58242;SDS011;50118;53.232;8.252;2022-11-20T04:59:51;10.13;;;5.72;;
58242;SDS011;50118;53.232;8.252;2022-11-20T05:02:16;10.27;;;6.60;;
58242;SDS011;50118;53.232;8.252;2022-11-20T05:04:42;8.32;;;6.00;;
58242;SDS011;50118;53.232;8.252;2022-11-20T05:07:07;9.18;;;5.85;;
58242;SDS011;50118;53.232;8.252;2022-11-20T05:09:33;9.13;;;6.07;;
58242;SDS011;50118;53.232;8.252;2022-11-20T05:11:58;9.40;;;6.70;;
58242;SDS011;50118;53.232;8.252;2022-11-20T05:14:24;9.50;;;6.03;;
58242;SDS011;50118;53.232;8.252;2022-11-20T05:16:49;10.57;;;6.00;;
58242;SDS011;50118;53.232;8.252;2022-11-20T05:19:15;10.10;;;6.13;;
58242;SDS011;50118;53.232;8.252;2022-11-20T05:21:40;10.82;;;6.45;;
58242;SDS011;50118;53.232;8.252;2022-11-20T05:24:05;9.57;;;6.13;;
58242;SDS011;50118;53.232;8.252;2022-11-20T05:26:32;8.20;;;5.43;;
58242;SDS011;50118;53.232;8.252;2022-11-20T05:28:57;9.77;;;5.88;;
58242;SDS011;50118;53.232;8.252;2022-11-20T05:31:23;10.02;;;6.38;;
58242;SDS011;50118;53.232;8.252;2022-11-20T05:33:49;10.27;;;6.05;;
58242;SDS011;50118;53.232;8.252;2022-11-20T05:36:15;11.23;;;6.05;;
58242;SDS011;50118;53.232;8.252;2022-11-20T05:38:42;10.52;;;6.25;;
58242;SDS011;50118;53.232;8.252;2022-11-20T05:43:36;10.48;;;6.80;;
58242;SDS011;50118;53.232;8.252;2022-11-20T05:46:03;9.95;;;6.25;;
58242;SDS011;50118;53.232;8.252;2022-11-20T05:48:30;10.18;;;6.38;;
58242;SDS011;50118;53.232;8.252;2022-11-20T05:50:56;8.88;;;6.00;;
58242;SDS011;50118;53.232;8.252;2022-11-20T05:53:25;11.13;;;6.55;;
58242;SDS011;50118;53.232;8.252;2022-11-20T05:56:00;9.77;;;6.45;;
58242;SDS011;50118;53.232;8.252;2022-11-20T05:58:27;11.63;;;6.65;;
58242;SDS011;50118;53.232;8.252;2022-11-20T06:00:54;10.32;;;6.70;;
58242;SDS011;50118;53.232;8.252;2022-11-20T06:03:19;12.23;;;6.63;;
58242;SDS011;50118;53.232;8.252;2022-11-20T06:05:45;11.15;;;6.90;;
58242;SDS011;50118;53.232;8.252;2022-11-20T06:08:11;10.55;;;6.95;;
58242;SDS011;50118;53.232;8.252;2022-11-20T06:10:36;11.50;;;6.43;;
58242;SDS011;50118;53.232;8.252;2022-11-20T06:13:02;11.35;;;6.60;;
58242;SDS011;50118;53.232;8.252;2022-11-20T06:15:27;12.23;;;6.75;;
58242;SDS011;50118;53.232;8.252;2022-11-20T06:17:53;9.88;;;6.50;;
58242;SDS011;50118;53.232;8.252;2022-11-20T06:20:20;10.57;;;6.70;;
58242;SDS011;50118;53.232;8.252;2022-11-20T06:22:46;10.27;;;6.88;;
58242;SDS011;50118;53.232;8.252;2022-11-20T06:25:11;10.23;;;6.72;;
58242;SDS011;50118;53.232;8.252;2022-11-20T06:27:37;10.05;;;6.40;;
58242;SDS011;50118;53.232;8.252;2022-11-20T06:30:02;10.90;;;6.70;;
58242;SDS011;50118;53.232;8.252;2022-11-20T06:32:28;11.13;;;7.15;;
58242;SDS011;50118;53.232;8.252;2022-11-20T06:34:54;9.90;;;6.65;;
58242;SDS011;50118;53.232;8.252;2022-11-20T06:37:19;11.20;;;6.85;;
58242;SDS011;50118;53.232;8.252;2022-11-20T06:39:45;12.85;;;7.30;;
58242;SDS011;50118;53.232;8.252;2022-11-20T06:42:10;10.50;;;6.78;;
58242;SDS011;50118;53.232;8.252;2022-11-20T06:44:35;9.75;;;6.78;;
58242;SDS011;50118;53.232;8.252;2022-11-20T06:47:01;11.38;;;7.35;;
58242;SDS011;50118;53.232;8.252;2022-11-20T06:49:26;11.18;;;6.97;;
58242;SDS011;50118;53.232;8.252;2022-11-20T06:51:51;9.95;;;6.70;;
58242;SDS011;50118;53.232;8.252;2022-11-20T06:54:17;10.25;;;6.97;;
58242;SDS011;50118;53.232;8.252;2022-11-20T06:56:45;9.85;;;6.47;;
58242;SDS011;50118;53.232;8.252;2022-11-20T06:59:12;10.20;;;7.03;;
58242;SDS011;50118;53.232;8.252;2022-11-20T07:01:38;12.13;;;6.93;;
58242;SDS011;50118;53.232;8.252;2022-11-20T07:04:03;11.13;;;7.38;;
58242;SDS011;50118;53.232;8.252;2022-11-20T07:06:29;11.73;;;7.40;;
58242;SDS011;50118;53.232;8.252;2022-11-20T07:08:54;12.38;;;7.70;;
58242;SDS011;50118;53.232;8.252;2022-11-20T07:11:20;11.02;;;7.40;;
58242;SDS011;50118;53.232;8.252;2022-11-20T07:13:45;10.95;;;7.22;;
58242;SDS011;50118;53.232;8.252;2022-11-20T07:16:10;12.65;;;7.53;;
58242;SDS011;50118;53.232;8.252;2022-11-20T07:18:36;12.23;;;7.95;;
58242;SDS011;50118;53.232;8.252;2022-11-20T07:21:06;13.20;;;8.50;;
58242;SDS011;50118;53.232;8.252;2022-11-20T07:23:33;14.02;;;8.68;;
58242;SDS011;50118;53.232;8.252;2022-11-20T07:26:02;12.82;;;8.52;;
58242;SDS011;50118;53.232;8.252;2022-11-20T07:28:28;13.57;;;8.38;;
58242;SDS011;50118;53.232;8.252;2022-11-20T07:30:53;11.15;;;7.75;;
58242;SDS011;50118;53.232;8.252;2022-11-20T07:33:19;11.95;;;7.47;;
58242;SDS011;50118;53.232;8.252;2022-11-20T07:35:45;12.43;;;8.43;;
58242;SDS011;50118;53.232;8.252;2022-11-20T07:38:10;12.60;;;8.10;;
58242;SDS011;50118;53.232;8.252;2022-11-20T07:40:35;13.15;;;8.35;;
58242;SDS011;50118;53.232;8.252;2022-11-20T07:43:01;11.52;;;7.80;;
58242;SDS011;50118;53.232;8.252;2022-11-20T07:45:26;12.80;;;8.00;;
58242;SDS011;50118;53.232;8.252;2022-11-20T07:47:52;14.63;;;8.98;;
58242;SDS011;50118;53.232;8.252;2022-11-20T07:50:17;13.82;;;8.75;;
58242;SDS011;50118;53.232;8.252;2022-11-20T07:52:44;12.00;;;8.02;;
58242;SDS011;50118;53.232;8.252;2022-11-20T07:55:10;13.65;;;8.57;;
58242;SDS011;50118;53.232;8.252;2022-11-20T07:57:36;11.55;;;7.93;;
58242;SDS011;50118;53.232;8.252;2022-11-20T08:00:02;13.50;;;8.55;;
58242;SDS011;50118;53.232;8.252;2022-11-20T08:04:59;18.80;;;13.32;;
58242;SDS011;50118;53.232;8.252;2022-11-20T08:07:24;20.73;;;14.13;;
58242;SDS011;50118;53.232;8.252;2022-11-20T08:09:49;20.02;;;12.52;;
58242;SDS011;50118;53.232;8.252;2022-11-20T08:12:16;18.33;;;11.35;;
58242;SDS011;50118;53.232;8.252;2022-11-20T08:15:02;17.73;;;12.05;;
58242;SDS011;50118;53.232;8.252;2022-11-20T08:17:28;17.88;;;11.85;;
58242;SDS011;50118;53.232;8.252;2022-11-20T08:19:54;19.02;;;11.70;;
58242;SDS011;50118;53.232;8.252;2022-11-20T08:22:19;18.10;;;11.63;;
58242;SDS011;50118;53.232;8.252;2022-11-20T08:24:45;17.60;;;11.80;;
58242;SDS011;50118;53.232;8.252;2022-11-20T08:27:11;16.65;;;10.98;;
58242;SDS011;50118;53.232;8.252;2022-11-20T08:29:37;18.77;;;12.65;;
58242;SDS011;50118;53.232;8.252;2022-11-20T08:32:02;20.92;;;13.27;;
58242;SDS011;50118;53.232;8.252;2022-11-20T08:34:27;19.58;;;12.85;;
58242;SDS011;50118;53.232;8.252;2022-11-20T08:36:53;22.02;;;14.15;;
58242;SDS011;50118;53.232;8.252;2022-11-20T08:39:18;20.85;;;12.85;;
58242;SDS011;50118;53.232;8.252;2022-11-20T08:41:44;17.20;;;11.65;;
58242;SDS011;50118;53.232;8.252;2022-11-20T08:44:09;18.02;;;12.00;;
58242;SDS011;50118;53.232;8.252;2022-11-20T08:46:41;19.65;;;12.60;;
58242;SDS011;50118;53.232;8.252;2022-11-20T08:49:09;18.63;;;12.00;;
58242;SDS011;50118;53.232;8.252;2022-11-20T08:51:36;17.38;;;11.73;;
58242;SDS011;50118;53.232;8.252;2022-11-20T08:54:02;19.73;;;13.18;;
58242;SDS011;50118;53.232;8.252;2022-11-20T08:56:29;18.67;;;12.55;;
58242;SDS011;50118;53.232;8.252;2022-11-20T08:58:54;21.48;;;13.73;;
58242;SDS011;50118;53.232;8.252;2022-11-20T09:01:20;20.65;;;13.27;;
58242;SDS011;50118;53.232;8.252;2022-11-20T09:03:48;18.67;;;12.85;;
58242;SDS011;50118;53.232;8.252;2022-11-20T09:06:14;19.08;;;13.32;;
58242;SDS011;50118;53.232;8.252;2022-11-20T09:08:40;30.50;;;21.92;;
58242;SDS011;50118;53.232;8.252;2022-11-20T09:11:06;25.40;;;16.98;;
58242;SDS011;50118;53.232;8.252;2022-11-20T09:13:32;41.35;;;28.38;;
58242;SDS011;50118;53.232;8.252;2022-11-20T09:16:00;27.10;;;17.45;;
58242;SDS011;50118;53.232;8.252;2022-11-20T09:18:33;26.63;;;18.83;;
58242;SDS011;50118;53.232;8.252;2022-11-20T09:21:02;33.05;;;20.67;;
58242;SDS011;50118;53.232;8.252;2022-11-20T09:23:33;25.08;;;16.30;;
58242;SDS011;50118;53.232;8.252;2022-11-20T09:26:13;19.75;;;13.75;;
58242;SDS011;50118;53.232;8.252;2022-11-20T09:28:39;19.33;;;13.20;;
58242;SDS011;50118;53.232;8.252;2022-11-20T09:31:07;21.10;;;13.77;;
58242;SDS011;50118;53.232;8.252;2022-11-20T09:33:35;20.88;;;15.05;;
58242;SDS011;50118;53.232;8.252;2022-11-20T09:36:00;19.92;;;13.68;;
58242;SDS011;50118;53.232;8.252;2022-11-20T09:38:26;20.90;;;14.25;;
58242;SDS011;50118;53.232;8.252;2022-11-20T09:40:58;17.98;;;12.65;;
58242;SDS011;50118;53.232;8.252;2022-11-20T09:43:37;19.25;;;12.57;;
58242;SDS011;50118;53.232;8.252;2022-11-20T09:46:49;18.10;;;12.63;;
58242;SDS011;50118;53.232;8.252;2022-11-20T09:54:42;23.48;;;15.48;;
58242;SDS011;50118;53.232;8.252;2022-11-20T09:57:13;19.00;;;13.07;;
58242;SDS011;50118;53.232;8.252;2022-11-20T09:59:49;19.85;;;13.30;;
58242;SDS011;50118;53.232;8.252;2022-11-20T10:02:38;20.50;;;13.70;;
58242;SDS011;50118;53.232;8.252;2022-11-20T10:07:50;17.45;;;12.13;;
58242;SDS011;50118;53.232;8.252;2022-11-20T10:10:31;18.85;;;12.50;;
58242;SDS011;50118;53.232;8.252;2022-11-20T10:16:07;19.42;;;12.95;;
58242;SDS011;50118;53.232;8.252;2022-11-20T10:30:12;17.27;;;12.02;;
58242;SDS011;50118;53.232;8.252;2022-11-20T10:32:41;18.17;;;12.32;;
58242;SDS011;50118;53.232;8.252;2022-11-20T10:38:19;18.95;;;12.18;;
58242;SDS011;50118;53.232;8.252;2022-11-20T10:40:49;18.48;;;12.13;;
58242;SDS011;50118;53.232;8.252;2022-11-20T10:43:21;17.10;;;11.15;;
58242;SDS011;50118;53.232;8.252;2022-11-20T10:45:58;16.88;;;11.40;;
58242;SDS011;50118;53.232;8.252;2022-11-20T10:48:28;16.20;;;11.15;;
58242;SDS011;50118;53.232;8.252;2022-11-20T10:51:09;17.15;;;11.30;;
58242;SDS011;50118;53.232;8.252;2022-11-20T11:01:47;17.23;;;11.43;;
58242;SDS011;50118;53.232;8.252;2022-11-20T11:04:55;16.20;;;11.38;;
58242;SDS011;50118;53.232;8.252;2022-11-20T11:09:52;16.77;;;11.80;;
58242;SDS011;50118;53.232;8.252;2022-11-20T11:12:19;17.42;;;11.80;;
58242;SDS011;50118;53.232;8.252;2022-11-20T11:14:49;16.38;;;11.40;;
58242;SDS011;50118;53.232;8.252;2022-11-20T11:22:32;17.98;;;11.20;;
58242;SDS011;50118;53.232;8.252;2022-11-20T11:24:59;17.08;;;11.02;;
58242;SDS011;50118;53.232;8.252;2022-11-20T11:27:25;16.30;;;11.18;;
58242;SDS011;50118;53.232;8.252;2022-11-20T11:29:50;16.98;;;10.80;;
58242;SDS011;50118;53.232;8.252;2022-11-20T11:32:28;15.25;;;10.75;;
58242;SDS011;50118;53.232;8.252;2022-11-20T11:35:00;16.52;;;10.52;;
58242;SDS011;50118;53.232;8.252;2022-11-20T11:37:31;14.18;;;9.73;;
58242;SDS011;50118;53.232;8.252;2022-11-20T11:40:00;14.70;;;10.13;;
58242;SDS011;50118;53.232;8.252;2022-11-20T11:42:25;15.15;;;10.00;;
58242;SDS011;50118;53.232;8.252;2022-11-20T11:44:53;15.40;;;10.30;;
58242;SDS011;50118;53.232;8.252;2022-11-20T11:47:36;14.95;;;10.25;;
58242;SDS011;50118;53.232;8.252;2022-11-20T11:52:35;16.48;;;9.48;;
58242;SDS011;50118;53.232;8.252;2022-11-20T11:55:08;15.50;;;10.07;;
58242;SDS011;50118;53.232;8.252;2022-11-20T11:57:47;14.07;;;10.05;;
58242;SDS011;50118;53.232;8.252;2022-11-20T12:00:15;17.77;;;11.40;;
58242;SDS011;50118;53.232;8.252;2022-11-20T12:07:44;15.60;;;10.30;;
58242;SDS011;50118;53.232;8.252;2022-11-20T12:10:22;14.52;;;9.77;;
58242;SDS011;50118;53.232;8.252;2022-11-20T12:15:56;15.20;;;10.38;;
58242;SDS011;50118;53.232;8.252;2022-11-20T12:18:21;16.83;;;10.38;;
58242;SDS011;50118;53.232;8.252;2022-11-20T12:21:01;15.95;;;10.55;;
58242;SDS011;50118;53.232;8.252;2022-11-20T12:23:44;17.02;;;10.27;;
58242;SDS011;50118;53.232;8.252;2022-11-20T12:26:21;17.38;;;10.25;;
58242;SDS011;50118;53.232;8.252;2022-11-20T12:31:41;14.70;;;9.20;;
58242;SDS011;50118;53.232;8.252;2022-11-20T12:34:29;14.38;;;10.00;;
58242;SDS011;50118;53.232;8.252;2022-11-20T12:42:49;14.93;;;9.52;;
58242;SDS011;50118;53.232;8.252;2022-11-20T12:48:46;13.65;;;9.07;;
58242;SDS011;50118;53.232;8.252;2022-11-20T12:57:07;15.27;;;10.10;;
58242;SDS011;50118;53.232;8.252;2022-11-20T13:00:02;12.80;;;8.68;;
58242;SDS011;50118;53.232;8.252;2022-11-20T13:08:36;12.32;;;7.85;;
58242;SDS011;50118;53.232;8.252;2022-11-20T13:13:48;12.73;;;8.15;;
58242;SDS011;50118;53.232;8.252;2022-11-20T13:16:28;12.95;;;7.60;;
58242;SDS011;50118;53.232;8.252;2022-11-20T13:19:02;13.07;;;8.13;;
58242;SDS011;50118;53.232;8.252;2022-11-20T13:24:33;13.85;;;6.95;;
58242;SDS011;50118;53.232;8.252;2022-11-20T13:27:05;12.10;;;7.30;;
58242;SDS011;50118;53.232;8.252;2022-11-20T13:29:44;12.45;;;7.47;;
58242;SDS011;50118;53.232;8.252;2022-11-20T13:32:17;11.68;;;7.60;;
58242;SDS011;50118;53.232;8.252;2022-11-20T13:34:55;13.70;;;7.65;;
58242;SDS011;50118;53.232;8.252;2022-11-20T13:42:34;12.85;;;7.90;;
58242;SDS011;50118;53.232;8.252;2022-11-20T13:45:27;11.43;;;7.00;;
58242;SDS011;50118;53.232;8.252;2022-11-20T13:47:54;13.35;;;7.78;;
58242;SDS011;50118;53.232;8.252;2022-11-20T13:50:23;12.13;;;7.50;;
58242;SDS011;50118;53.232;8.252;2022-11-20T13:53:22;12.15;;;7.40;;
58242;SDS011;50118;53.232;8.252;2022-11-20T13:59:13;12.25;;;7.22;;
58242;SDS011;50118;53.232;8.252;2022-11-20T14:01:23;11.75;;;7.60;;
58242;SDS011;50118;53.232;8.252;2022-11-20T14:03:51;11.63;;;7.05;;
58242;SDS011;50118;53.232;8.252;2022-11-20T14:06:28;11.88;;;6.90;;
58242;SDS011;50118;53.232;8.252;2022-11-20T14:08:56;12.20;;;7.45;;
58242;SDS011;50118;53.232;8.252;2022-11-20T14:11:23;10.68;;;6.78;;
58242;SDS011;50118;53.232;8.252;2022-11-20T14:16:28;13.00;;;7.70;;
58242;SDS011;50118;53.232;8.252;2022-11-20T14:18:57;11.55;;;7.22;;
58242;SDS011;50118;53.232;8.252;2022-11-20T14:21:42;11.02;;;6.80;;
58242;SDS011;50118;53.232;8.252;2022-11-20T14:24:10;13.20;;;7.20;;
58242;SDS011;50118;53.232;8.252;2022-11-20T14:26:46;12.13;;;7.60;;
58242;SDS011;50118;53.232;8.252;2022-11-20T14:29:16;10.90;;;7.07;;
58242;SDS011;50118;53.232;8.252;2022-11-20T14:31:44;10.52;;;6.80;;
58242;SDS011;50118;53.232;8.252;2022-11-20T14:34:21;11.88;;;7.40;;
58242;SDS011;50118;53.232;8.252;2022-11-20T14:36:50;10.10;;;6.47;;
58242;SDS011;50118;53.232;8.252;2022-11-20T14:39:21;12.02;;;7.93;;
58242;SDS011;50118;53.232;8.252;2022-11-20T14:41:53;11.90;;;7.72;;
58242;SDS011;50118;53.232;8.252;2022-11-20T14:44:52;12.13;;;7.72;;
58242;SDS011;50118;53.232;8.252;2022-11-20T14:47:15;11.43;;;7.50;;
58242;SDS011;50118;53.232;8.252;2022-11-20T14:49:45;12.30;;;8.35;;
58242;SDS011;50118;53.232;8.252;2022-11-20T14:54:57;17.45;;;9.70;;
58242;SDS011;50118;53.232;8.252;2022-11-20T14:57:27;22.67;;;13.52;;
58242;SDS011;50118;53.232;8.252;2022-11-20T15:02:41;21.27;;;13.35;;
58242;SDS011;50118;53.232;8.252;2022-11-20T15:05:07;19.08;;;10.57;;
58242;SDS011;50118;53.232;8.252;2022-11-20T15:07:38;14.25;;;9.40;;
58242;SDS011;50118;53.232;8.252;2022-11-20T15:10:12;14.50;;;9.50;;
58242;SDS011;50118;53.232;8.252;2022-11-20T15:12:48;17.38;;;10.55;;
58242;SDS011;50118;53.232;8.252;2022-11-20T15:15:25;15.55;;;10.40;;
58242;SDS011;50118;53.232;8.252;2022-11-20T15:17:56;15.77;;;10.65;;
58242;SDS011;50118;53.232;8.252;2022-11-20T15:20:24;15.82;;;10.50;;
58242;SDS011;50118;53.232;8.252;2022-11-20T15:22:52;17.63;;;10.82;;
58242;SDS011;50118;53.232;8.252;2022-11-20T15:25:18;13.88;;;9.18;;
58242;SDS011;50118;53.232;8.252;2022-11-20T15:27:44;14.52;;;9.68;;
58242;SDS011;50118;53.232;8.252;2022-11-20T15:32:40;20.15;;;12.95;;
58242;SDS011;50118;53.232;8.252;2022-11-20T15:35:06;23.98;;;14.48;;
58242;SDS011;50118;53.232;8.252;2022-11-20T15:37:32;21.05;;;13.25;;
58242;SDS011;50118;53.232;8.252;2022-11-20T15:39:57;16.98;;;10.40;;
58242;SDS011;50118;53.232;8.252;2022-11-20T15:42:22;15.93;;;10.18;;
58242;SDS011;50118;53.232;8.252;2022-11-20T15:44:48;16.80;;;10.38;;
58242;SDS011;50118;53.232;8.252;2022-11-20T15:47:13;16.63;;;10.10;;
58242;SDS011;50118;53.232;8.252;2022-11-20T15:49:38;15.05;;;9.82;;
58242;SDS011;50118;53.232;8.252;2022-11-20T15:52:04;17.77;;;10.80;;
58242;SDS011;50118;53.232;8.252;2022-11-20T15:54:29;19.77;;;11.68;;
58242;SDS011;50118;53.232;8.252;2022-11-20T15:56:55;36.40;;;20.23;;
58242;SDS011;50118;53.232;8.252;2022-11-20T15:59:20;65.10;;;32.70;;
58242;SDS011;50118;53.232;8.252;2022-11-20T16:01:45;38.95;;;20.92;;
58242;SDS011;50118;53.232;8.252;2022-11-20T16:04:12;26.50;;;15.50;;
58242;SDS011;50118;53.232;8.252;2022-11-20T16:06:39;18.23;;;11.75;;
58242;SDS011;50118;53.232;8.252;2022-11-20T16:09:04;19.38;;;11.88;;
58242;SDS011;50118;53.232;8.252;2022-11-20T16:11:30;52.75;;;26.63;;
58242;SDS011;50118;53.232;8.252;2022-11-20T16:13:55;39.30;;;22.42;;
58242;SDS011;50118;53.232;8.252;2022-11-20T16:16:39;46.35;;;24.73;;
58242;SDS011;50118;53.232;8.252;2022-11-20T16:19:09;41.88;;;23.42;;
58242;SDS011;50118;53.232;8.252;2022-11-20T16:21:35;29.67;;;17.58;;
58242;SDS011;50118;53.232;8.252;2022-11-20T16:24:05;30.52;;;16.50;;
58242;SDS011;50118;53.232;8.252;2022-11-20T16:26:32;28.38;;;16.33;;
58242;SDS011;50118;53.232;8.252;2022-11-20T16:28:58;31.02;;;17.08;;
58242;SDS011;50118;53.232;8.252;2022-11-20T16:31:24;38.10;;;21.92;;